Time;durP1;ratioP1;P1;durP2;ratioP2;P2;SDS_P1;SDS_P2;PMS_P1;PMS_P2;Temp;Humidity;BMP_temperature;BMP_pressure;BME280_temperature;BME280_humidity;BME280_pressure;Samples;Min_cycle;Max_cycle;Signal;HPM_P1;HPM_P2
2022/11/24 00:01:51;;;;;;;;;39.00;35.50;;;;;5.28;100.00;98459.22;6283865;20;2843029;-57
2022/11/24 00:04:20;;;;;;;;;37.33;34.67;;;;;5.27;100.00;98454.84;6282461;20;3613791;-56
2022/11/24 00:06:49;;;;;;;;;55.00;39.33;;;;;5.32;100.00;98459.88;6312416;20;3607766;-58
2022/11/24 00:09:19;;;;;;;;;42.33;38.33;;;;;5.38;100.00;98459.53;6283791;20;2870205;-57
2022/11/24 00:11:48;;;;;;;;;56.00;43.33;;;;;5.37;100.00;98464.00;6316300;20;2875282;-57
2022/11/24 00:14:17;;;;;;;;;47.50;39.00;;;;;5.22;100.00;98468.41;6313374;20;2849366;-57
2022/11/24 00:16:46;;;;;;;;;50.00;40.50;;;;;5.34;100.00;98461.50;6283977;20;2852443;-58
2022/11/24 00:19:16;;;;;;;;;56.33;41.00;;;;;5.43;100.00;98468.94;6281692;20;2863853;-57
2022/11/24 00:21:48;;;;;;;;;55.67;40.67;;;;;5.31;100.00;98472.31;6312991;20;3630467;-57
2022/11/24 00:24:16;;;;;;;;;53.00;43.00;;;;;5.33;100.00;98474.91;6315095;20;2835712;-57
2022/11/24 00:26:45;;;;;;;;;54.00;44.00;;;;;5.24;100.00;98481.66;6280187;20;2854442;-57
2022/11/24 00:29:14;;;;;;;;;50.00;40.00;;;;;5.23;100.00;98477.25;6282124;20;2857547;-57
2022/11/24 00:31:42;;;;;;;;;53.00;43.50;;;;;5.25;100.00;98486.00;6282870;20;2848247;-57
2022/11/24 00:34:13;;;;;;;;;52.00;42.00;;;;;5.27;100.00;98487.63;6279204;20;2863863;-57
2022/11/24 00:36:43;;;;;;;;;59.67;45.00;;;;;5.30;100.00;98485.75;6279950;20;2879578;-56
2022/11/24 00:39:14;;;;;;;;;57.00;43.50;;;;;5.26;100.00;98485.03;6314447;20;2860804;-57
2022/11/24 00:41:44;;;;;;;;;57.33;45.33;;;;;5.23;100.00;98488.75;6278849;20;2855543;-58
2022/11/24 00:44:12;;;;;;;;;56.50;43.00;;;;;5.21;100.00;98489.78;6315583;20;2866995;-53
2022/11/24 00:46:42;;;;;;;;;56.00;43.00;;;;;5.36;100.00;98494.19;6278345;20;2862914;-53
2022/11/24 00:49:11;;;;;;;;;46.00;38.50;;;;;5.34;100.00;98492.56;6315908;20;2871152;-53
2022/11/24 00:51:39;;;;;;;;;56.00;42.00;;;;;5.34;100.00;98496.09;6281745;20;2869023;-57
2022/11/24 00:54:09;;;;;;;;;51.67;41.00;;;;;5.32;100.00;98492.69;6279642;20;2859095;-57
2022/11/24 00:56:38;;;;;;;;;55.00;43.67;;;;;5.35;100.00;98503.16;6312383;20;2862915;-57
2022/11/24 00:59:08;;;;;;;;;58.33;42.33;;;;;5.24;100.00;98501.13;6309636;20;2861766;-57
2022/11/24 01:01:37;;;;;;;;;48.00;40.50;;;;;5.27;100.00;98503.59;6311209;20;2868014;-57
2022/11/24 01:04:07;;;;;;;;;57.00;42.00;;;;;5.25;100.00;98497.50;6283004;20;2870098;-55
2022/11/24 01:06:36;;;;;;;;;49.33;40.67;;;;;5.31;100.00;98504.25;6306457;20;2870063;-57
2022/11/24 01:09:05;;;;;;;;;53.00;42.00;;;;;5.31;100.00;98506.06;6312786;20;2864880;-57
2022/11/24 01:14:24;;;;;;;;;58.67;42.33;;;;;5.38;100.00;98513.59;6281867;20;2884756;-57
2022/11/24 01:16:54;;;;;;;;;59.00;44.67;;;;;5.27;100.00;98510.72;6311468;20;3606530;-57
2022/11/24 01:19:24;;;;;;;;;67.33;53.00;;;;;5.38;100.00;98504.78;6312099;20;3637793;-57
2022/11/24 01:21:53;;;;;;;;;66.33;51.33;;;;;5.47;100.00;98510.38;6310375;20;3613818;-55
2022/11/24 01:24:22;;;;;;;;;54.00;47.00;;;;;5.35;100.00;98512.94;6309441;20;2867077;-56
2022/11/24 01:26:51;;;;;;;;;55.67;44.00;;;;;5.50;100.00;98512.88;6279838;20;2869590;-57
2022/11/24 01:29:21;;;;;;;;;47.33;39.67;;;;;5.48;100.00;98517.44;6312969;20;2871172;-55
2022/11/24 01:31:50;;;;;;;;;51.67;40.33;;;;;5.46;100.00;98513.16;6309907;20;2870126;-57
2022/11/24 01:34:20;;;;;;;;;47.33;38.67;;;;;5.43;100.00;98526.66;6310790;20;2868110;-58
2022/11/24 01:36:49;;;;;;;;;42.00;34.00;;;;;5.42;100.00;98527.56;6315319;20;3623226;-55
2022/11/24 01:39:17;;;;;;;;;42.33;35.00;;;;;5.47;100.00;98525.50;6282775;20;3609649;-57
2022/11/24 01:41:47;;;;;;;;;36.33;32.33;;;;;5.39;100.00;98519.78;6273132;20;2866973;-57
2022/11/24 01:44:31;;;;;;;;;39.67;34.00;;;;;5.50;100.00;98526.19;6312182;20;2855514;-56
2022/11/24 01:47:22;;;;;;;;;31.67;27.00;;;;;5.52;100.00;98527.91;6311094;20;2852346;-56
2022/11/24 01:49:57;;;;;;;;;35.00;29.33;;;;;5.55;100.00;98541.88;6308336;20;2853205;-58
2022/11/24 01:52:43;;;;;;;;;35.33;29.33;;;;;5.62;100.00;98537.91;6310290;20;2862805;-57
2022/11/24 01:55:25;;;;;;;;;32.67;27.67;;;;;5.50;100.00;98531.53;6313772;20;3581543;-57
2022/11/24 01:57:56;;;;;;;;;36.67;32.00;;;;;5.56;100.00;98542.75;6276805;20;2864964;-56
2022/11/24 02:00:25;;;;;;;;;31.00;30.00;;;;;5.48;100.00;98541.41;6310058;20;2850390;-57
2022/11/24 02:02:54;;;;;;;;;35.50;29.00;;;;;5.59;100.00;98539.91;6280818;20;2850467;-57
2022/11/24 02:05:39;;;;;;;;;33.00;29.50;;;;;5.69;100.00;98546.41;6278707;20;2854475;-57
2022/11/24 02:08:50;;;;;;;;;30.50;28.50;;;;;5.61;100.00;98545.97;6278282;20;2856522;-57
2022/11/24 02:11:23;;;;;;;;;32.00;28.50;;;;;5.60;100.00;98536.28;6277249;20;2847305;-58
2022/11/24 02:13:53;;;;;;;;;31.00;29.50;;;;;5.52;100.00;98538.53;6278158;20;2847148;-58
2022/11/24 02:16:23;;;;;;;;;31.67;27.33;;;;;5.59;100.00;98539.91;6277014;20;2844150;-56
2022/11/24 02:18:52;;;;;;;;;41.00;32.00;;;;;5.66;100.00;98536.78;6316058;20;3613189;-57
2022/11/24 02:21:22;;;;;;;;;33.33;28.67;;;;;5.68;100.00;98532.19;6279458;20;2844121;-57
2022/11/24 02:24:12;;;;;;;;;33.00;30.67;;;;;5.59;100.00;98534.56;6313802;20;3587797;-58
2022/11/24 02:26:46;;;;;;;;;41.33;36.00;;;;;5.52;100.00;98542.06;6273901;20;2867189;-58
2022/11/24 02:29:16;;;;;;;;;45.67;38.00;;;;;5.57;100.00;98533.81;6310249;20;3596238;-56
2022/11/24 02:31:53;;;;;;;;;37.67;34.00;;;;;5.49;100.00;98535.09;6276265;20;2858639;-57
2022/11/24 02:34:22;;;;;;;;;36.33;32.33;;;;;5.55;100.00;98535.69;6311859;20;3602350;-58
2022/11/24 02:36:51;;;;;;;;;35.67;34.00;;;;;5.49;100.00;98534.25;6277633;20;2852459;-57
2022/11/24 02:39:20;;;;;;;;;51.00;37.67;;;;;5.44;100.00;98534.53;6311448;20;3619093;-57
2022/11/24 02:41:59;;;;;;;;;43.33;35.33;;;;;5.47;100.00;98529.00;6276831;20;2864849;-58
2022/11/24 02:44:38;;;;;;;;;47.00;37.67;;;;;5.60;100.00;98530.94;6312568;20;3610699;-59
2022/11/24 02:47:12;;;;;;;;;53.00;39.33;;;;;5.40;100.00;98533.00;6277186;20;3625302;-58
2022/11/24 02:49:41;;;;;;;;;48.00;38.00;;;;;5.58;100.00;98530.19;6310165;20;2860812;-58
2022/11/24 02:52:10;;;;;;;;;43.00;36.67;;;;;5.59;100.00;98521.25;6280582;20;2855561;-57
2022/11/24 02:54:39;;;;;;;;;47.00;36.00;;;;;5.61;100.00;98524.66;6311960;20;2864824;-57
2022/11/24 02:57:10;;;;;;;;;49.00;39.33;;;;;5.49;100.00;98527.13;6277854;20;2866112;-58
2022/11/24 02:59:39;;;;;;;;;41.67;36.00;;;;;5.56;100.00;98532.94;6309599;20;3612722;-57
2022/11/24 03:02:09;;;;;;;;;42.00;38.00;;;;;5.59;100.00;98531.91;6307612;20;2854506;-58
2022/11/24 03:04:37;;;;;;;;;49.50;38.50;;;;;5.63;100.00;98541.41;6277593;20;2841937;-57
2022/11/24 03:07:06;;;;;;;;;48.00;40.00;;;;;5.64;100.00;98543.16;6275903;20;2856524;-58
2022/11/24 03:09:35;;;;;;;;;50.00;39.00;;;;;5.60;100.00;98541.59;6275700;20;2847180;-57
2022/11/24 03:12:04;;;;;;;;;42.00;36.00;;;;;5.56;100.00;98546.25;6279274;20;2871116;-58
2022/11/24 03:14:33;;;;;;;;;43.00;36.67;;;;;5.66;100.00;98544.78;6278867;20;3618033;-58
2022/11/24 03:17:02;;;;;;;;;46.50;36.50;;;;;5.53;100.00;98540.25;6274589;20;2852378;-59
2022/11/24 03:19:32;;;;;;;;;44.00;34.67;;;;;5.66;100.00;98541.22;6272190;20;2875604;-57
2022/11/24 03:22:02;;;;;;;;;42.67;38.00;;;;;5.65;100.00;98544.84;6307762;20;2865969;-57
2022/11/24 03:24:31;;;;;;;;;34.67;30.33;;;;;5.58;100.00;98532.84;6304782;20;2858675;-57
2022/11/24 03:27:00;;;;;;;;;32.00;29.33;;;;;5.53;100.00;98532.25;6312327;20;3596096;-58
2022/11/24 03:29:29;;;;;;;;;41.50;36.50;;;;;5.62;100.00;98532.56;6274144;20;2852329;-58
2022/11/24 03:31:58;;;;;;;;;41.00;36.00;;;;;5.71;100.00;98536.47;6282154;20;3587784;-57
2022/11/24 03:34:27;;;;;;;;;46.00;39.00;;;;;5.69;100.00;98538.41;6276276;20;2864944;-57
2022/11/24 03:36:55;;;;;;;;;44.50;36.00;;;;;5.66;100.00;98538.56;6274798;20;2854521;-57
2022/11/24 03:39:24;;;;;;;;;48.50;40.00;;;;;5.59;100.00;98540.75;6277349;20;2851431;-58
2022/11/24 03:41:53;;;;;;;;;58.67;43.33;;;;;5.66;100.00;98546.56;6276143;20;2855549;-58
2022/11/24 03:44:23;;;;;;;;;62.00;48.33;;;;;5.65;100.00;98548.38;6310830;20;3632571;-58
2022/11/24 03:46:52;;;;;;;;;69.00;53.00;;;;;5.66;100.00;98550.09;6304563;20;3639838;-57
2022/11/24 03:49:21;;;;;;;;;78.00;57.67;;;;;5.60;100.00;98553.09;6312879;20;3641921;-58
2022/11/24 03:51:51;;;;;;;;;67.67;53.00;;;;;5.67;100.00;98556.28;6281463;20;3636696;-58
2022/11/24 03:54:20;;;;;;;;;66.00;53.33;;;;;5.78;100.00;98559.13;6313033;20;3623173;-58
2022/11/24 03:56:49;;;;;;;;;42.50;35.50;;;;;5.80;100.00;98567.06;6313934;20;2838874;-58
2022/11/24 03:59:18;;;;;;;;;55.00;41.00;;;;;5.72;100.00;98567.50;6300342;20;2668158;-57
2022/11/24 04:01:47;;;;;;;;;50.67;40.00;;;;;5.69;100.00;98565.03;6282774;20;2868057;-58
2022/11/24 04:04:16;;;;;;;;;55.67;41.33;;;;;5.80;100.00;98573.22;6317481;20;3613843;-58
2022/11/24 04:06:44;;;;;;;;;49.50;41.50;;;;;5.78;100.00;98564.47;6282809;20;2848217;-58
2022/11/24 04:09:13;;;;;;;;;52.00;41.00;;;;;5.69;100.00;98571.22;6278786;20;2855587;-58
2022/11/24 04:14:29;;;;;;;;;43.50;39.50;;;;;5.60;100.00;98582.41;6282079;20;2835869;-58
2022/11/24 04:16:58;;;;;;;;;57.00;44.33;;;;;5.56;100.00;98574.69;6284570;20;2876376;-58
2022/11/24 04:19:28;;;;;;;;;45.67;38.67;;;;;5.72;100.00;98580.81;6314016;20;2858682;-58
2022/11/24 04:21:58;;;;;;;;;46.00;36.00;;;;;5.63;100.00;98581.34;6312430;20;3618016;-57
2022/11/24 04:24:26;;;;;;;;;57.00;41.67;;;;;5.64;100.00;98583.94;6316701;20;3619161;-58
2022/11/24 04:26:56;;;;;;;;;43.00;36.00;;;;;5.62;100.00;98585.84;6284061;20;2870200;-56
2022/11/24 04:29:25;;;;;;;;;57.33;43.33;;;;;5.68;100.00;98592.59;6312361;20;2872212;-58
2022/11/24 04:31:54;;;;;;;;;52.00;41.33;;;;;5.78;100.00;98606.22;6315121;20;2868000;-57
2022/11/24 04:34:24;;;;;;;;;62.00;43.33;;;;;5.71;100.00;98601.28;6311882;20;3638960;-58
2022/11/24 04:36:53;;;;;;;;;59.33;47.33;;;;;5.61;100.00;98602.75;6311240;20;2872202;-57
2022/11/24 04:39:23;;;;;;;;;63.00;48.00;;;;;5.69;100.00;98597.00;6313085;20;3648170;-57
2022/11/24 04:41:57;;;;;;;;;55.67;42.33;;;;;5.64;100.00;98599.06;6313648;20;2874447;-57
2022/11/24 04:44:26;;;;;;;;;55.33;43.67;;;;;5.65;100.00;98601.63;6314643;20;2870160;-57
2022/11/24 04:46:56;;;;;;;;;49.00;37.67;;;;;5.61;100.00;98610.75;6309382;20;2857689;-57
2022/11/24 04:49:25;;;;;;;;;54.67;42.33;;;;;5.61;100.00;98616.09;6314178;20;2860763;-58
2022/11/24 04:51:54;;;;;;;;;46.00;39.50;;;;;5.77;100.00;98615.19;6312061;20;2856560;-57
2022/11/24 04:54:24;;;;;;;;;51.00;36.00;;;;;5.72;100.00;98616.28;6279359;20;2876540;-54
2022/11/24 04:56:52;;;;;;;;;53.50;40.50;;;;;5.63;100.00;98613.31;6313649;20;2840889;-57
2022/11/24 04:59:22;;;;;;;;;53.33;38.67;;;;;5.68;100.00;98621.88;6277671;20;2874467;-55
2022/11/24 05:01:51;;;;;;;;;41.67;33.67;;;;;5.60;100.00;98622.34;6307850;20;3619034;-56
2022/11/24 05:04:20;;;;;;;;;51.50;42.00;;;;;5.69;100.00;98629.81;6314142;20;2851315;-57
2022/11/24 05:06:50;;;;;;;;;52.00;42.67;;;;;5.81;100.00;98622.03;6276786;20;2864982;-57
2022/11/24 05:09:19;;;;;;;;;56.00;38.33;;;;;5.70;100.00;98630.66;6310636;20;2872206;-58
2022/11/24 05:11:49;;;;;;;;;54.00;42.33;;;;;5.65;100.00;98627.41;6311765;20;2867037;-57
2022/11/24 05:14:18;;;;;;;;;55.67;43.67;;;;;5.61;100.00;98633.84;6310741;20;2864879;-57
2022/11/24 05:16:48;;;;;;;;;63.33;48.33;;;;;5.65;100.00;98632.72;6312029;20;2870128;-58
2022/11/24 05:19:17;;;;;;;;;65.67;48.67;;;;;5.79;100.00;98640.75;6311830;20;3636778;-57
2022/11/24 05:21:47;;;;;;;;;61.67;46.67;;;;;5.78;100.00;98639.03;6311604;20;2864905;-58
2022/11/24 05:24:16;;;;;;;;;59.00;47.00;;;;;5.77;100.00;98637.34;6312838;20;2864969;-57
2022/11/24 05:26:45;;;;;;;;;55.33;45.67;;;;;5.85;100.00;98645.72;6312153;20;2854516;-58
2022/11/24 05:29:15;;;;;;;;;66.00;50.67;;;;;5.69;100.00;98652.91;6311716;20;3636836;-59
2022/11/24 05:31:44;;;;;;;;;74.67;54.67;;;;;5.71;100.00;98664.31;6309303;20;3641037;-58
2022/11/24 05:34:14;;;;;;;;;59.33;39.33;;;;;5.85;100.00;98656.38;6280104;20;3637732;-58
2022/11/24 05:36:53;;;;;;;;;69.00;51.67;;;;;5.85;100.00;98660.88;6312943;20;3622110;-58
2022/11/24 05:39:22;;;;;;;;;76.67;58.00;;;;;5.93;100.00;98664.81;6313378;20;3625342;-58
2022/11/24 05:41:51;;;;;;;;;71.67;53.00;;;;;5.80;100.00;98669.13;6311417;20;3635675;-59
2022/11/24 05:44:20;;;;;;;;;69.33;52.67;;;;;5.76;100.00;98678.22;6281186;20;3635746;-59
2022/11/24 05:46:50;;;;;;;;;77.33;54.00;;;;;5.77;100.00;98679.09;6275658;20;3659668;-57
2022/11/24 05:49:20;;;;;;;;;72.33;54.33;;;;;5.85;100.00;98682.19;6276848;20;3632568;-59
2022/11/24 05:51:49;;;;;;;;;74.00;57.00;;;;;5.82;100.00;98688.53;6311554;20;3619158;-57
2022/11/24 05:54:19;;;;;;;;;77.67;59.00;;;;;5.84;100.00;98697.28;6313277;20;3658560;-58
2022/11/24 05:56:48;;;;;;;;;76.67;59.00;;;;;5.81;100.00;98697.44;6278928;20;3622935;-57
2022/11/24 05:59:18;;;;;;;;;79.00;57.33;;;;;5.79;100.00;98704.66;6303853;20;3650794;-57
2022/11/24 06:01:47;;;;;;;;;90.33;72.67;;;;;5.71;100.00;98712.25;6272150;20;3664999;-58
2022/11/24 06:04:17;;;;;;;;;80.00;61.67;;;;;5.72;100.00;98708.66;6273145;20;3631654;-58
2022/11/24 06:06:46;;;;;;;;;77.00;59.00;;;;;5.77;100.00;98717.25;6311035;20;2762902;-59
2022/11/24 06:09:16;;;;;;;;;72.00;55.50;;;;;5.71;100.00;98713.13;6276743;20;3648309;-58
2022/11/24 06:11:47;;;;;;;;;74.67;54.33;;;;;5.65;100.00;98713.47;6307174;20;3648240;-58
2022/11/24 06:14:17;;;;;;;;;81.33;58.00;;;;;5.69;100.00;98720.34;6277547;20;3641973;-57
2022/11/24 06:16:46;;;;;;;;;74.33;56.33;;;;;5.60;100.00;98730.66;6311640;20;3646261;-59
2022/11/24 06:19:16;;;;;;;;;75.33;57.33;;;;;5.60;100.00;98727.97;6279620;20;3635175;-58
2022/11/24 06:21:45;;;;;;;;;71.00;55.67;;;;;5.66;100.00;98727.63;6309092;20;3621200;-58
2022/11/24 06:24:15;;;;;;;;;76.33;57.33;;;;;5.58;100.00;98737.84;6310369;20;3626333;-58
2022/11/24 06:26:44;;;;;;;;;75.33;57.00;;;;;5.53;100.00;98740.81;6307260;20;3626538;-59
2022/11/24 06:29:14;;;;;;;;;74.00;53.00;;;;;5.55;100.00;98743.34;6312530;20;3646129;-58
2022/11/24 06:31:43;;;;;;;;;77.00;58.33;;;;;5.60;100.00;98741.28;6310577;20;2876540;-59
2022/11/24 06:34:13;;;;;;;;;76.33;56.33;;;;;5.43;100.00;98740.44;6313592;20;3636747;-58
2022/11/24 06:36:42;;;;;;;;;77.33;59.00;;;;;5.49;100.00;98744.56;6281935;20;3626444;-57
2022/11/24 06:39:11;;;;;;;;;80.67;59.00;;;;;5.48;100.00;98749.03;6282081;20;3646143;-59
2022/11/24 06:41:41;;;;;;;;;76.67;59.00;;;;;5.40;100.00;98756.59;6309366;20;3630542;-58
2022/11/24 06:44:10;;;;;;;;;84.33;60.67;;;;;5.44;100.00;98754.59;6312486;20;3643007;-59
2022/11/24 06:46:40;;;;;;;;;89.33;67.00;;;;;5.48;100.00;98765.00;6273088;20;3669036;-58
2022/11/24 06:49:09;;;;;;;;;84.67;67.00;;;;;5.46;100.00;98766.03;6278720;20;3657568;-58
2022/11/24 06:51:40;;;;;;;;;89.67;71.33;;;;;5.31;100.00;98762.41;6279778;20;3656573;-59
2022/11/24 06:54:19;;;;;;;;;86.33;65.00;;;;;5.45;100.00;98765.19;6280385;20;3654457;-57
2022/11/24 06:56:54;;;;;;;;;97.75;81.50;;;;;5.41;100.00;98763.63;6307699;20;4435717;-58
2022/11/24 06:59:25;;;;;;;;;107.67;79.67;;;;;5.53;100.00;98766.53;6309852;20;3692928;-57
2022/11/24 07:01:55;;;;;;;;;106.25;88.25;;;;;5.43;100.00;98767.06;6274883;20;3696109;-58
2022/11/24 07:04:25;;;;;;;;;85.67;64.00;;;;;5.35;100.00;98769.28;6277457;20;3653414;-57
2022/11/24 07:06:54;;;;;;;;;79.67;57.00;;;;;5.42;100.00;98775.97;6277659;20;3649232;-58
2022/11/24 07:09:24;;;;;;;;;85.00;63.67;;;;;5.41;100.00;98776.94;6277296;20;3649613;-57
2022/11/24 07:11:56;;;;;;;;;81.67;62.33;;;;;5.43;100.00;98783.03;6311149;20;3644084;-58
2022/11/24 07:14:25;;;;;;;;;84.00;64.50;;;;;5.55;100.00;98780.63;6279500;20;3528545;-58
2022/11/24 07:16:55;;;;;;;;;75.67;55.67;;;;;5.60;100.00;98783.91;6310005;20;3635710;-58
2022/11/24 07:19:24;;;;;;;;;81.33;60.33;;;;;5.55;100.00;98791.28;6310246;20;3645011;-58
2022/11/24 07:21:54;;;;;;;;;86.33;66.67;;;;;5.59;100.00;98795.50;6311519;20;3660693;-59
2022/11/24 07:24:23;;;;;;;;;87.33;69.00;;;;;5.55;100.00;98792.13;6279074;20;3652355;-58
2022/11/24 07:26:53;;;;;;;;;89.00;66.00;;;;;5.71;100.00;98797.47;6281852;20;3673191;-57
2022/11/24 07:29:22;;;;;;;;;104.33;78.00;;;;;5.73;100.00;98807.09;6284409;20;3688789;-58
2022/11/24 07:31:52;;;;;;;;;83.33;67.33;;;;;5.73;100.00;98800.91;6282259;20;3637867;-57
2022/11/24 07:34:21;;;;;;;;;79.00;61.33;;;;;5.64;100.00;98796.13;6283023;20;3623187;-58
2022/11/24 07:36:51;;;;;;;;;79.67;59.00;;;;;5.78;100.00;98806.84;6316700;20;3637846;-57
2022/11/24 07:39:20;;;;;;;;;83.00;63.00;;;;;5.79;100.00;98810.34;6282268;20;3649257;-58
2022/11/24 07:41:51;;;;;;;;;103.50;86.75;;;;;5.87;100.00;98813.44;6280661;20;3693994;-58
2022/11/24 07:44:21;;;;;;;;;95.25;75.50;;;;;5.84;100.00;98814.47;6282143;20;3685751;-58
2022/11/24 07:46:51;;;;;;;;;87.33;65.33;;;;;5.73;100.00;98817.75;6279839;20;3658830;-59
2022/11/24 07:49:21;;;;;;;;;84.67;63.00;;;;;5.69;100.00;98820.69;6312472;20;3639817;-58
2022/11/24 07:51:51;;;;;;;;;76.67;59.33;;;;;5.83;100.00;98825.22;6314038;20;3610670;-58
2022/11/24 07:54:20;;;;;;;;;88.50;64.50;;;;;5.84;100.00;98819.81;6316792;20;4403370;-58
2022/11/24 07:56:50;;;;;;;;;88.00;63.25;;;;;5.57;100.00;98818.69;6318980;20;4412866;-58
2022/11/24 07:59:19;;;;;;;;;86.00;62.33;;;;;5.66;100.00;98818.16;6314920;20;3655432;-59
2022/11/24 08:01:49;;;;;;;;;90.00;67.67;;;;;5.76;100.00;98822.03;6281830;20;3662763;-58
2022/11/24 08:04:19;;;;;;;;;126.25;100.75;;;;;5.82;100.00;98823.50;6280248;20;3708841;-58
2022/11/24 08:06:49;;;;;;;;;94.00;80.67;;;;;5.82;100.00;98827.03;6277625;20;3653434;-58
2022/11/24 08:09:20;;;;;;;;;88.00;63.67;;;;;5.77;100.00;98829.09;6280040;20;3656516;-58
2022/11/24 08:11:49;;;;;;;;;104.67;86.00;;;;;5.81;100.00;98835.97;6279413;20;3692920;-59
2022/11/24 08:14:19;;;;;;;;;94.00;79.00;;;;;6.01;100.00;98831.38;6282476;20;3667967;-57
2022/11/24 08:16:48;;;;;;;;;87.67;69.33;;;;;5.85;100.00;98834.84;6282436;20;3680494;-57
2022/11/24 08:19:18;;;;;;;;;85.00;65.25;;;;;5.82;100.00;98840.38;6282439;20;3662031;-58
2022/11/24 08:21:47;;;;;;;;;88.33;63.67;;;;;5.76;100.00;98838.03;6313509;20;3662784;-59
2022/11/24 08:24:17;;;;;;;;;88.00;67.67;;;;;5.81;100.00;98840.44;6282608;20;3666007;-57
2022/11/24 08:26:47;;;;;;;;;84.25;63.25;;;;;5.92;100.00;98844.25;6283655;20;3654552;-58
2022/11/24 08:29:16;;;;;;;;;111.25;84.75;;;;;5.82;100.00;98843.03;6313165;20;4471177;-59
2022/11/24 08:31:46;;;;;;;;;93.00;74.33;;;;;5.88;100.00;98848.00;6278335;20;3674245;-58
2022/11/24 08:34:15;;;;;;;;;85.67;63.33;;;;;5.64;100.00;98849.38;6282246;20;3661818;-58
2022/11/24 08:36:45;;;;;;;;;85.67;63.33;;;;;5.73;100.00;98848.84;6278640;20;3646223;-58
2022/11/24 08:39:15;;;;;;;;;85.67;64.67;;;;;5.73;100.00;98854.19;6283910;20;3653329;-59
2022/11/24 08:41:44;;;;;;;;;89.00;65.67;;;;;5.72;100.00;98857.78;6279930;20;3669118;-58
2022/11/24 08:44:16;;;;;;;;;87.67;65.33;;;;;5.75;100.00;98854.97;6282242;20;3655450;-57
2022/11/24 08:46:46;;;;;;;;;89.00;70.67;;;;;6.04;100.00;98865.81;6283086;20;3676327;-58
2022/11/24 08:49:17;;;;;;;;;82.67;61.00;;;;;6.22;100.00;98862.13;6282080;20;3637806;-57
2022/11/24 08:51:48;;;;;;;;;91.25;70.00;;;;;5.91;100.00;98869.13;6316111;20;4422144;-58
2022/11/24 08:54:18;;;;;;;;;93.00;71.00;;;;;5.90;100.00;98862.09;6316556;20;4436765;-57
2022/11/24 08:56:49;;;;;;;;;95.00;72.67;;;;;5.91;100.00;98853.16;6316458;20;3675309;-57
2022/11/24 08:59:18;;;;;;;;;93.50;74.75;;;;;6.15;100.00;98868.75;6285986;20;4444009;-58
2022/11/24 09:01:48;;;;;;;;;89.33;68.00;;;;;6.13;100.00;98865.28;6284682;20;3670064;-58
2022/11/24 09:04:18;;;;;;;;;88.75;63.25;;;;;6.16;100.00;98867.78;6285312;20;4404424;-58
2022/11/24 09:06:48;;;;;;;;;91.75;72.00;;;;;6.40;100.00;98872.66;6318773;20;4428391;-57
2022/11/24 09:09:18;;;;;;;;;79.00;59.67;;;;;6.55;100.00;98874.44;6315776;20;3631570;-58
2022/11/24 09:11:47;;;;;;;;;80.67;58.00;;;;;6.29;100.00;98868.84;6315125;20;3638894;-58
2022/11/24 09:14:17;;;;;;;;;87.67;62.67;;;;;6.34;100.00;98877.41;6316692;20;3657589;-57
2022/11/24 09:16:46;;;;;;;;;83.67;60.33;;;;;6.55;100.00;98869.97;6282942;20;3647168;-59
2022/11/24 09:19:16;;;;;;;;;76.67;54.33;;;;;6.86;100.00;98868.16;6316018;20;3638959;-58
2022/11/24 09:21:45;;;;;;;;;83.33;61.00;;;;;6.88;100.00;98870.75;6281035;20;3660755;-58
2022/11/24 09:24:15;;;;;;;;;84.33;64.00;;;;;6.72;100.00;98876.16;6284529;20;3636742;-59
2022/11/24 09:26:45;;;;;;;;;87.33;66.33;;;;;7.07;100.00;98887.38;6314920;20;3659615;-59
2022/11/24 09:29:16;;;;;;;;;80.50;59.75;;;;;7.17;100.00;98887.69;6285769;20;3641049;-59
2022/11/24 09:31:45;;;;;;;;;81.00;59.00;;;;;7.24;100.00;98889.91;6313706;20;3654849;-58
2022/11/24 09:34:15;;;;;;;;;64.00;46.00;;;;;7.27;100.00;98888.84;6284057;20;3626302;-59
2022/11/24 09:36:44;;;;;;;;;72.00;56.33;;;;;7.26;100.00;98895.13;6312444;20;3613763;-58
2022/11/24 09:39:13;;;;;;;;;65.00;53.00;;;;;7.12;100.00;98900.44;6286146;20;3495023;-58
2022/11/24 09:42:11;;;;;;;;;70.33;51.33;;;;;7.66;100.00;98893.56;6311073;20;3648171;-58
2022/11/24 09:45:13;;;;;;;;;75.00;55.33;;;;;7.55;100.00;98897.81;6279722;20;3636705;-58
2022/11/24 09:48:02;;;;;;;;;73.33;55.33;;;;;7.55;99.49;98893.34;6309785;20;3632572;-58
2022/11/24 09:50:38;;;;;;;;;61.67;47.67;;;;;7.58;96.36;98895.84;6312176;20;3629422;-58
2022/11/24 09:53:40;;;;;;;;;65.00;50.00;;;;;7.77;97.20;98892.03;6314544;20;3633634;-58
2022/11/24 09:56:35;;;;;;;;;65.00;49.00;;;;;8.30;97.32;98896.59;6311948;20;3626294;-59
2022/11/24 09:59:15;;;;;;;;;79.50;55.75;;;;;8.27;95.20;98902.16;6316697;20;4409622;-59
2022/11/24 10:01:48;;;;;;;;;70.67;52.00;;;;;8.00;96.71;98902.09;6312202;20;3627318;-58
2022/11/24 10:04:39;;;;;;;;;54.00;44.33;;;;;7.95;97.31;98906.00;6315811;20;3607578;-58
2022/11/24 10:07:29;;;;;;;;;67.00;52.00;;;;;7.64;98.40;98898.13;6311839;20;3635733;-56
2022/11/24 10:10:22;;;;;;;;;64.33;49.00;;;;;7.76;97.84;98906.31;6311668;20;3631516;-58
2022/11/24 10:13:49;;;;;;;;;61.00;45.67;;;;;7.71;95.95;98898.59;6308653;20;3638816;-58
2022/11/24 10:17:01;;;;;;;;;63.33;49.33;;;;;7.87;96.74;98893.13;6278609;20;3618070;-59
2022/11/24 10:20:08;;;;;;;;;53.00;40.33;;;;;7.99;92.83;98897.72;6309445;20;3621071;-59
2022/11/24 10:23:36;;;;;;;;;53.00;40.33;;;;;7.29;91.61;98896.75;6313652;20;3617360;-59
2022/11/24 10:26:38;;;;;;;;;51.00;38.00;;;;;7.67;92.88;98908.63;6289422;20;3604504;-59
2022/11/24 10:29:25;;;;;;;;;58.67;44.00;;;;;7.69;89.97;98906.72;6338277;20;3620258;-59
2022/11/24 10:31:56;;;;;;;;;55.33;42.67;;;;;7.78;89.76;98913.28;6341366;20;3610669;-59
2022/11/24 10:34:37;;;;;;;;;54.00;41.67;;;;;7.52;88.39;98912.22;6336252;20;3617968;-63
2022/11/24 10:37:45;;;;;;;;;56.00;44.33;;;;;7.55;87.91;98905.84;6336005;20;3601420;-63
2022/11/24 10:40:38;;;;;;;;;61.67;45.67;;;;;7.69;87.89;98912.06;6339992;20;3637893;-63
2022/11/24 10:43:28;;;;;;;;;53.00;40.33;;;;;7.50;87.29;98906.13;6337340;20;3616933;-62
2022/11/24 10:46:19;;;;;;;;;56.00;39.67;;;;;7.38;87.67;98909.56;6336381;20;2869205;-63
2022/11/24 10:48:59;;;;;;;;;49.67;39.67;;;;;7.22;88.06;98907.81;6338043;20;2866400;-63
2022/11/24 10:52:02;;;;;;;;;57.33;44.33;;;;;7.39;88.75;98903.25;6340243;20;3620005;-63
2022/11/24 10:54:34;;;;;;;;;55.50;44.50;;;;;7.44;89.05;98911.84;6340420;20;2857599;-62
2022/11/24 10:57:04;;;;;;;;;49.00;41.67;;;;;7.53;88.43;98908.63;6305865;20;2867072;-62
2022/11/24 10:59:39;;;;;;;;;52.67;41.67;;;;;7.49;89.25;98907.09;6341558;20;2869104;-62
2022/11/24 11:02:40;;;;;;;;;57.67;41.00;;;;;7.38;89.19;98913.09;6342021;20;2874427;-63
2022/11/24 11:05:53;;;;;;;;;53.00;39.67;;;;;7.25;87.01;98912.97;6333347;20;2872249;-62
2022/11/24 11:08:31;;;;;;;;;58.00;42.33;;;;;7.65;88.89;98915.00;6337777;20;2863927;-62
2022/11/24 11:11:34;;;;;;;;;66.00;46.67;;;;;7.30;88.79;98919.84;6339695;20;3627382;-62
2022/11/24 11:14:11;;;;;;;;;50.67;40.33;;;;;7.50;88.58;98907.94;6335082;20;2865022;-62
2022/11/24 11:16:51;;;;;;;;;55.67;45.33;;;;;7.59;88.98;98910.91;6339221;20;2863005;-63
2022/11/24 11:19:48;;;;;;;;;61.00;46.67;;;;;7.61;87.63;98917.03;6336997;20;3635727;-62
2022/11/24 11:22:30;;;;;;;;;62.00;48.33;;;;;7.53;89.14;98913.97;6336401;20;3641952;-62
2022/11/24 11:25:33;;;;;;;;;64.67;47.00;;;;;7.51;90.07;98913.19;6336307;20;3658659;-62
2022/11/24 11:28:29;;;;;;;;;57.33;44.33;;;;;7.68;90.48;98926.34;6338796;20;2868156;-62
2022/11/24 11:31:04;;;;;;;;;46.00;36.33;;;;;7.73;89.46;98911.84;6338106;20;2858599;-62
2022/11/24 11:34:14;;;;;;;;;50.67;40.00;;;;;7.59;87.61;98921.59;6337566;20;2868903;-62
2022/11/24 11:36:55;;;;;;;;;58.00;43.00;;;;;7.52;86.28;98920.25;6321837;20;3620068;-62